Time;durP1;ratioP1;P1;durP2;ratioP2;P2;SDS_P1;SDS_P2;PMS_P1;PMS_P2;Temp;Humidity;BMP_temperature;BMP_pressure;BME280_temperature;BME280_humidity;BME280_pressure;Samples;Min_cycle;Max_cycle;Signal;HPM_P1;HPM_P2
2024/01/11 00:01:49;;;;;;;23.05;12.23;;;;;;;;;;4978742;28;25060;-60
2024/01/11 00:04:15;;;;;;;26.02;13.10;;;;;;;;;;4964501;28;25079;-60
2024/01/11 00:06:44;;;;;;;24.10;12.43;;;;;;;;;;4964548;28;25084;-61
2024/01/11 00:09:10;;;;;;;22.80;12.88;;;;;;;;;;4966060;28;25171;-60
2024/01/11 00:11:36;;;;;;;22.02;12.48;;;;;;;;;;4965318;28;25052;-60
2024/01/11 00:14:02;;;;;;;24.35;12.70;;;;;;;;;;4971233;28;25060;-60
2024/01/11 00:16:28;;;;;;;30.38;13.93;;;;;;;;;;4985982;28;25093;-60
2024/01/11 00:18:54;;;;;;;26.10;13.40;;;;;;;;;;4992236;28;25173;-59
2024/01/11 00:21:20;;;;;;;29.20;13.25;;;;;;;;;;4992245;28;25088;-61
2024/01/11 00:23:46;;;;;;;29.60;13.13;;;;;;;;;;4990956;28;25064;-59
2024/01/11 00:26:15;;;;;;;23.55;12.65;;;;;;;;;;4990714;28;25095;-60
2024/01/11 00:28:41;;;;;;;27.67;13.52;;;;;;;;;;4980361;28;25055;-61
2024/01/11 00:31:07;;;;;;;23.83;12.52;;;;;;;;;;4982005;28;25057;-59
2024/01/11 00:33:33;;;;;;;25.17;13.80;;;;;;;;;;4983856;28;25087;-58
2024/01/11 00:35:59;;;;;;;25.95;13.20;;;;;;;;;;4982924;28;25108;-59
2024/01/11 00:38:25;;;;;;;26.73;13.70;;;;;;;;;;4984720;28;25150;-59
2024/01/11 00:40:51;;;;;;;26.08;12.30;;;;;;;;;;4970212;28;25056;-60
2024/01/11 00:43:17;;;;;;;24.08;12.98;;;;;;;;;;4968671;28;25048;-61
2024/01/11 00:45:43;;;;;;;26.63;11.85;;;;;;;;;;4986313;28;25168;-61
2024/01/11 00:48:09;;;;;;;24.58;13.15;;;;;;;;;;4962337;28;25101;-60
2024/01/11 00:50:34;;;;;;;24.20;12.07;;;;;;;;;;4963412;28;25076;-60
2024/01/11 00:53:01;;;;;;;24.02;11.77;;;;;;;;;;4965684;28;25055;-60
2024/01/11 00:55:27;;;;;;;26.50;13.90;;;;;;;;;;4964525;28;25075;-60
2024/01/11 00:57:53;;;;;;;22.52;12.77;;;;;;;;;;4967497;28;25064;-60
2024/01/11 01:00:19;;;;;;;27.52;13.85;;;;;;;;;;4987344;28;25070;-61
2024/01/11 01:02:45;;;;;;;21.65;12.07;;;;;;;;;;4965033;28;25144;-61
2024/01/11 01:05:11;;;;;;;27.50;13.02;;;;;;;;;;4976996;28;25098;-58
2024/01/11 01:07:36;;;;;;;26.35;13.30;;;;;;;;;;4981497;28;25099;-58
2024/01/11 01:10:02;;;;;;;23.48;12.73;;;;;;;;;;4987636;28;25058;-59
2024/01/11 01:12:28;;;;;;;26.25;13.30;;;;;;;;;;4990749;28;25081;-61
2024/01/11 01:14:55;;;;;;;28.15;14.65;;;;;;;;;;4986055;28;25072;-60
2024/01/11 01:17:22;;;;;;;28.83;13.38;;;;;;;;;;4979103;28;25081;-59
2024/01/11 01:19:48;;;;;;;24.73;13.20;;;;;;;;;;4977937;28;25066;-61
2024/01/11 01:22:14;;;;;;;31.17;12.95;;;;;;;;;;4966961;28;25157;-61
2024/01/11 01:24:40;;;;;;;26.50;12.52;;;;;;;;;;4970263;28;25067;-59
2024/01/11 01:27:06;;;;;;;26.02;13.48;;;;;;;;;;4961710;28;25077;-60
2024/01/11 01:29:32;;;;;;;26.15;14.27;;;;;;;;;;4967607;28;25079;-61
2024/01/11 01:31:58;;;;;;;28.05;14.38;;;;;;;;;;4966606;28;25099;-59
2024/01/11 01:34:24;;;;;;;28.10;14.43;;;;;;;;;;4963442;28;25163;-60
2024/01/11 01:36:50;;;;;;;28.40;13.68;;;;;;;;;;4969154;28;25145;-59
2024/01/11 01:39:16;;;;;;;26.35;13.52;;;;;;;;;;4964310;28;25088;-62
2024/01/11 01:41:42;;;;;;;26.02;14.32;;;;;;;;;;4965651;28;25129;-59
2024/01/11 01:44:08;;;;;;;24.95;13.35;;;;;;;;;;4966023;28;25077;-58
2024/01/11 01:46:34;;;;;;;27.73;13.73;;;;;;;;;;4967922;28;25148;-59
2024/01/11 01:49:01;;;;;;;26.95;14.20;;;;;;;;;;4967752;28;25176;-61
2024/01/11 01:51:29;;;;;;;24.38;13.27;;;;;;;;;;4968282;28;25056;-60
2024/01/11 01:53:56;;;;;;;27.70;13.75;;;;;;;;;;4968571;28;25108;-62
2024/01/11 01:56:22;;;;;;;26.65;13.60;;;;;;;;;;4960711;28;25060;-60
2024/01/11 01:58:49;;;;;;;30.92;14.23;;;;;;;;;;4963480;28;25052;-60
2024/01/11 02:01:15;;;;;;;24.55;13.50;;;;;;;;;;4967287;28;25103;-59
2024/01/11 02:03:41;;;;;;;27.13;14.40;;;;;;;;;;4968119;28;25067;-59
2024/01/11 02:06:07;;;;;;;27.40;14.68;;;;;;;;;;4966887;28;25061;-60
2024/01/11 02:08:35;;;;;;;32.10;15.38;;;;;;;;;;4965801;28;25067;-59
2024/01/11 02:11:01;;;;;;;26.35;13.95;;;;;;;;;;4965778;28;25055;-58
2024/01/11 02:13:27;;;;;;;24.98;13.18;;;;;;;;;;4967974;28;25056;-60
2024/01/11 02:15:53;;;;;;;28.05;14.48;;;;;;;;;;4965300;28;25074;-59
2024/01/11 02:18:19;;;;;;;31.08;14.65;;;;;;;;;;4965631;28;25060;-61
2024/01/11 02:20:45;;;;;;;24.33;13.00;;;;;;;;;;4960028;28;25083;-61
2024/01/11 02:23:18;;;;;;;29.83;15.68;;;;;;;;;;4966450;28;25071;-59
2024/01/11 02:25:44;;;;;;;27.92;13.63;;;;;;;;;;4966141;28;25069;-60
2024/01/11 02:28:11;;;;;;;25.90;13.77;;;;;;;;;;4966268;28;25091;-59
2024/01/11 02:30:37;;;;;;;23.92;13.60;;;;;;;;;;4969424;28;25124;-59
2024/01/11 02:33:04;;;;;;;26.35;14.05;;;;;;;;;;4982877;28;25062;-60
2024/01/11 02:35:30;;;;;;;29.35;15.15;;;;;;;;;;4970241;28;25073;-59
2024/01/11 02:37:55;;;;;;;27.48;13.80;;;;;;;;;;4966034;28;25070;-60
2024/01/11 02:40:22;;;;;;;25.65;13.95;;;;;;;;;;4966545;28;25125;-61
2024/01/11 02:42:48;;;;;;;30.52;14.90;;;;;;;;;;4966497;28;25060;-59
2024/01/11 02:45:14;;;;;;;29.13;14.38;;;;;;;;;;4967015;28;25066;-60
2024/01/11 02:47:40;;;;;;;29.65;13.93;;;;;;;;;;4962603;28;25105;-58
2024/01/11 02:50:07;;;;;;;27.42;14.43;;;;;;;;;;4982087;28;25081;-61
2024/01/11 02:52:33;;;;;;;26.83;14.35;;;;;;;;;;4981777;28;25057;-60
2024/01/11 02:54:59;;;;;;;28.75;13.75;;;;;;;;;;4980302;28;25076;-60
2024/01/11 02:57:25;;;;;;;27.92;15.13;;;;;;;;;;4987623;28;25087;-59
2024/01/11 02:59:51;;;;;;;27.25;15.32;;;;;;;;;;4962137;28;25074;-61
2024/01/11 03:02:17;;;;;;;27.60;14.48;;;;;;;;;;4966675;28;25078;-59
2024/01/11 03:04:43;;;;;;;25.52;13.82;;;;;;;;;;4966724;28;25064;-60
2024/01/11 03:07:09;;;;;;;28.10;14.13;;;;;;;;;;4962709;28;25062;-60
2024/01/11 03:09:35;;;;;;;31.40;14.02;;;;;;;;;;4964391;28;25072;-61
2024/01/11 03:12:01;;;;;;;29.05;15.02;;;;;;;;;;4967056;28;25076;-60
2024/01/11 03:14:27;;;;;;;31.85;15.60;;;;;;;;;;4966188;28;25081;-61
2024/01/11 03:16:53;;;;;;;28.30;15.00;;;;;;;;;;4967789;28;25096;-58
2024/01/11 03:19:19;;;;;;;31.20;14.80;;;;;;;;;;4967693;28;25113;-62
2024/01/11 03:21:46;;;;;;;29.67;15.60;;;;;;;;;;4966480;28;25073;-59
2024/01/11 03:24:12;;;;;;;24.77;13.10;;;;;;;;;;4966108;28;25053;-61
2024/01/11 03:26:38;;;;;;;34.72;16.30;;;;;;;;;;4969139;28;25100;-61
2024/01/11 03:29:04;;;;;;;28.50;15.75;;;;;;;;;;4961817;28;25088;-59
2024/01/11 03:31:30;;;;;;;28.75;15.43;;;;;;;;;;4967666;28;25019;-60
2024/01/11 03:33:56;;;;;;;29.85;15.93;;;;;;;;;;4965625;28;25051;-59
2024/01/11 03:36:24;;;;;;;27.35;14.52;;;;;;;;;;4964162;28;25113;-60
2024/01/11 03:38:50;;;;;;;27.13;15.13;;;;;;;;;;4965760;28;25054;-60
2024/01/11 03:41:16;;;;;;;31.65;16.02;;;;;;;;;;4963930;28;25054;-60
2024/01/11 03:43:42;;;;;;;29.85;15.07;;;;;;;;;;4965361;28;25068;-61
2024/01/11 03:46:08;;;;;;;28.88;16.33;;;;;;;;;;4965109;28;25066;-61
2024/01/11 03:48:37;;;;;;;32.83;15.98;;;;;;;;;;4965892;28;25077;-60
2024/01/11 03:51:03;;;;;;;26.95;13.77;;;;;;;;;;4964936;28;25059;-58
2024/01/11 03:53:29;;;;;;;28.83;15.32;;;;;;;;;;4964129;28;25127;-60
2024/01/11 03:55:55;;;;;;;31.00;15.52;;;;;;;;;;4964245;28;25065;-61
2024/01/11 03:58:22;;;;;;;27.48;14.77;;;;;;;;;;4962878;28;25126;-60
2024/01/11 04:00:48;;;;;;;28.80;14.30;;;;;;;;;;4965915;28;25057;-60
2024/01/11 04:03:14;;;;;;;31.63;16.98;;;;;;;;;;4965802;28;25125;-61
2024/01/11 04:05:40;;;;;;;29.58;16.42;;;;;;;;;;4965667;28;25133;-60
2024/01/11 04:08:07;;;;;;;31.33;16.73;;;;;;;;;;4959008;28;25060;-58
2024/01/11 04:10:33;;;;;;;31.33;15.55;;;;;;;;;;4965402;28;25105;-59
2024/01/11 04:12:59;;;;;;;28.80;16.20;;;;;;;;;;4970159;28;25144;-59
2024/01/11 04:15:25;;;;;;;33.45;16.58;;;;;;;;;;4991167;28;25101;-59
2024/01/11 04:17:51;;;;;;;34.33;16.42;;;;;;;;;;4964686;28;25087;-60
2024/01/11 04:20:17;;;;;;;31.77;15.80;;;;;;;;;;4962665;28;25118;-61
2024/01/11 04:22:43;;;;;;;31.48;15.25;;;;;;;;;;4965579;28;25063;-60
2024/01/11 04:25:10;;;;;;;31.13;15.77;;;;;;;;;;4964172;28;25075;-62
2024/01/11 04:27:36;;;;;;;29.08;16.58;;;;;;;;;;4965037;28;25066;-59
2024/01/11 04:30:01;;;;;;;29.73;15.57;;;;;;;;;;4962285;28;25145;-59
2024/01/11 04:32:27;;;;;;;33.72;15.40;;;;;;;;;;4964801;28;25079;-60
2024/01/11 04:34:53;;;;;;;33.03;17.45;;;;;;;;;;4964406;28;25152;-61
2024/01/11 04:37:19;;;;;;;33.60;18.90;;;;;;;;;;4962910;28;25100;-59
2024/01/11 04:39:45;;;;;;;32.88;17.27;;;;;;;;;;4963866;28;25104;-59
2024/01/11 04:42:11;;;;;;;31.42;16.27;;;;;;;;;;4964405;28;25134;-59
2024/01/11 04:44:37;;;;;;;30.25;17.10;;;;;;;;;;4962757;28;25135;-58
2024/01/11 04:47:03;;;;;;;35.95;17.90;;;;;;;;;;4964167;28;25079;-60
2024/01/11 04:49:29;;;;;;;35.17;18.17;;;;;;;;;;4963526;28;25103;-59
2024/01/11 04:51:55;;;;;;;38.90;18.15;;;;;;;;;;4964135;28;25085;-62
2024/01/11 04:54:21;;;;;;;32.83;17.77;;;;;;;;;;4964368;28;25060;-60
2024/01/11 04:56:47;;;;;;;35.63;18.52;;;;;;;;;;4963351;28;25076;-60
2024/01/11 04:59:13;;;;;;;35.00;20.23;;;;;;;;;;4964707;28;25085;-61
2024/01/11 05:01:39;;;;;;;35.95;20.45;;;;;;;;;;4963518;28;25052;-61
2024/01/11 05:04:07;;;;;;;38.90;18.58;;;;;;;;;;4965115;28;25160;-60
2024/01/11 05:06:33;;;;;;;40.50;20.35;;;;;;;;;;4964464;28;25065;-60
2024/01/11 05:08:58;;;;;;;35.58;19.75;;;;;;;;;;4965758;28;25068;-61
2024/01/11 05:11:25;;;;;;;36.25;19.60;;;;;;;;;;4962877;28;25075;-62
2024/01/11 05:13:51;;;;;;;39.67;20.40;;;;;;;;;;4963943;28;25080;-60
2024/01/11 05:16:23;;;;;;;42.28;20.20;;;;;;;;;;4962931;28;25052;-60
2024/01/11 05:18:49;;;;;;;44.72;21.08;;;;;;;;;;4965780;28;25168;-61
2024/01/11 05:21:16;;;;;;;39.45;21.00;;;;;;;;;;4965068;28;25083;-60
2024/01/11 05:23:42;;;;;;;40.05;21.02;;;;;;;;;;4962676;28;25116;-60
2024/01/11 05:26:08;;;;;;;41.22;22.52;;;;;;;;;;4963646;28;25067;-61
2024/01/11 05:28:34;;;;;;;39.22;21.17;;;;;;;;;;4974222;28;25376;-59
2024/01/11 05:31:00;;;;;;;38.72;23.00;;;;;;;;;;4976193;28;25103;-58
2024/01/11 05:33:26;;;;;;;42.15;22.50;;;;;;;;;;4964777;28;25120;-60
2024/01/11 05:35:53;;;;;;;49.42;24.73;;;;;;;;;;4965318;28;25066;-59
2024/01/11 05:38:19;;;;;;;40.47;22.35;;;;;;;;;;4964611;28;25064;-59
2024/01/11 05:40:45;;;;;;;46.10;23.65;;;;;;;;;;4962811;28;25091;-60
2024/01/11 05:43:11;;;;;;;50.85;25.10;;;;;;;;;;4963287;28;25073;-62
2024/01/11 05:45:37;;;;;;;46.20;25.20;;;;;;;;;;4964977;28;25071;-63
2024/01/11 05:48:05;;;;;;;41.55;24.67;;;;;;;;;;4964856;28;25045;-60
2024/01/11 05:50:31;;;;;;;43.70;24.65;;;;;;;;;;4965184;28;25074;-61
2024/01/11 05:52:57;;;;;;;47.22;25.92;;;;;;;;;;4964831;28;25066;-61
2024/01/11 05:55:23;;;;;;;45.47;23.95;;;;;;;;;;4960343;28;25135;-60
2024/01/11 05:57:49;;;;;;;49.08;26.20;;;;;;;;;;4963532;28;25059;-62
2024/01/11 06:00:15;;;;;;;51.03;26.73;;;;;;;;;;4964313;28;25176;-61
2024/01/11 06:02:41;;;;;;;53.70;26.60;;;;;;;;;;4964397;28;25140;-61
2024/01/11 06:05:12;;;;;;;48.30;25.70;;;;;;;;;;4975808;28;25123;-59
2024/01/11 06:07:38;;;;;;;47.00;25.10;;;;;;;;;;4983222;28;25051;-60
2024/01/11 06:10:05;;;;;;;43.28;23.63;;;;;;;;;;4979781;28;25050;-60
2024/01/11 06:12:31;;;;;;;64.35;27.65;;;;;;;;;;4966325;28;25130;-61
2024/01/11 06:14:57;;;;;;;45.53;25.63;;;;;;;;;;4966966;28;25090;-62
2024/01/11 06:17:23;;;;;;;44.53;24.65;;;;;;;;;;4964111;28;25071;-60
2024/01/11 06:19:49;;;;;;;50.17;27.05;;;;;;;;;;4967681;28;25051;-61
2024/01/11 06:22:15;;;;;;;49.60;25.98;;;;;;;;;;4966399;28;25070;-61
2024/01/11 06:24:41;;;;;;;47.20;25.80;;;;;;;;;;4967260;28;25066;-62
2024/01/11 06:27:07;;;;;;;46.38;25.83;;;;;;;;;;4963993;28;25074;-62
2024/01/11 06:29:33;;;;;;;47.17;26.65;;;;;;;;;;4963701;28;25068;-60
2024/01/11 06:31:59;;;;;;;50.47;26.90;;;;;;;;;;4965476;28;25059;-60
2024/01/11 06:34:25;;;;;;;50.58;27.02;;;;;;;;;;4965028;28;25086;-60
2024/01/11 06:36:51;;;;;;;47.15;25.00;;;;;;;;;;4965122;28;25091;-60
2024/01/11 06:39:17;;;;;;;51.88;28.50;;;;;;;;;;4957525;28;25140;-60
2024/01/11 06:41:43;;;;;;;51.85;29.27;;;;;;;;;;4983044;28;25062;-63
2024/01/11 06:44:09;;;;;;;55.45;29.27;;;;;;;;;;4976963;28;25072;-60
2024/01/11 06:46:36;;;;;;;50.30;29.27;;;;;;;;;;4966968;28;25074;-60
2024/01/11 06:49:02;;;;;;;60.92;30.35;;;;;;;;;;4966347;28;25075;-61
2024/01/11 06:51:28;;;;;;;54.60;27.48;;;;;;;;;;4960720;28;25144;-60
2024/01/11 06:53:54;;;;;;;56.58;29.10;;;;;;;;;;4981196;28;25150;-60
2024/01/11 06:56:20;;;;;;;51.03;27.85;;;;;;;;;;4964049;28;25156;-65
2024/01/11 06:58:47;;;;;;;53.38;28.13;;;;;;;;;;4965608;28;25064;-64
2024/01/11 07:01:13;;;;;;;48.47;28.92;;;;;;;;;;4962889;28;25114;-64
2024/01/11 07:03:39;;;;;;;52.58;28.35;;;;;;;;;;4962815;28;25193;-64
2024/01/11 07:06:05;;;;;;;56.40;30.58;;;;;;;;;;4965657;28;25085;-64
2024/01/11 07:08:32;;;;;;;50.83;28.38;;;;;;;;;;4964523;28;25066;-62
2024/01/11 07:10:58;;;;;;;58.08;31.17;;;;;;;;;;4966799;28;25052;-63
2024/01/11 07:13:24;;;;;;;55.58;30.17;;;;;;;;;;4964559;28;25073;-62
2024/01/11 07:15:51;;;;;;;57.17;30.52;;;;;;;;;;4966676;28;25044;-61
2024/01/11 07:18:17;;;;;;;54.05;30.20;;;;;;;;;;4967483;28;25071;-62
2024/01/11 07:20:43;;;;;;;61.70;31.70;;;;;;;;;;4965487;28;25063;-64
2024/01/11 07:23:09;;;;;;;58.40;30.25;;;;;;;;;;4967858;28;25078;-63
2024/01/11 07:25:35;;;;;;;59.08;31.25;;;;;;;;;;4965129;28;25073;-63
2024/01/11 07:28:02;;;;;;;64.40;33.53;;;;;;;;;;4963926;28;25078;-64
2024/01/11 07:30:28;;;;;;;68.07;32.42;;;;;;;;;;4968310;28;25077;-62
2024/01/11 07:32:54;;;;;;;57.97;30.20;;;;;;;;;;4970404;28;25094;-62
2024/01/11 07:35:20;;;;;;;61.38;33.78;;;;;;;;;;4963341;28;25090;-66
2024/01/11 07:37:46;;;;;;;66.63;34.15;;;;;;;;;;4967851;28;25066;-63
2024/01/11 07:40:13;;;;;;;64.00;32.63;;;;;;;;;;4967734;28;25150;-64
2024/01/11 07:42:39;;;;;;;63.95;34.65;;;;;;;;;;4965993;28;25080;-61
2024/01/11 07:45:05;;;;;;;61.65;33.00;;;;;;;;;;4967965;28;25192;-62
2024/01/11 07:47:32;;;;;;;65.90;35.00;;;;;;;;;;4964126;28;25054;-65
2024/01/11 07:49:57;;;;;;;65.10;32.80;;;;;;;;;;4966798;28;25067;-62
2024/01/11 07:52:23;;;;;;;64.57;33.17;;;;;;;;;;4966234;28;25053;-67
2024/01/11 07:54:49;;;;;;;67.53;36.40;;;;;;;;;;4961146;28;25087;-64
2024/01/11 07:57:15;;;;;;;60.53;32.83;;;;;;;;;;4963855;28;25060;-65
2024/01/11 07:59:41;;;;;;;64.00;34.60;;;;;;;;;;4965504;28;25070;-60
2024/01/11 08:02:07;;;;;;;64.93;35.45;;;;;;;;;;4967411;28;25067;-62
2024/01/11 08:04:33;;;;;;;62.40;32.97;;;;;;;;;;4954752;28;25061;-62
2024/01/11 08:06:59;;;;;;;62.67;32.55;;;;;;;;;;4955899;28;25075;-63
2024/01/11 08:09:28;;;;;;;69.95;36.33;;;;;;;;;;4962904;28;25060;-62
2024/01/11 08:11:55;;;;;;;66.68;37.08;;;;;;;;;;4976639;28;25105;-65
2024/01/11 08:14:21;;;;;;;64.18;35.97;;;;;;;;;;4968155;28;25094;-62
2024/01/11 08:16:47;;;;;;;66.25;35.10;;;;;;;;;;4963336;28;25076;-64
2024/01/11 08:19:14;;;;;;;67.75;35.85;;;;;;;;;;4961096;28;25087;-63
2024/01/11 08:21:41;;;;;;;64.55;35.42;;;;;;;;;;4959443;28;25052;-66
2024/01/11 08:24:08;;;;;;;65.32;34.88;;;;;;;;;;4962972;28;25068;-63
2024/01/11 08:26:34;;;;;;;66.18;34.63;;;;;;;;;;4960039;28;25092;-62
2024/01/11 08:29:00;;;;;;;68.45;36.38;;;;;;;;;;4960746;28;25045;-66
2024/01/11 08:31:26;;;;;;;62.65;34.33;;;;;;;;;;4960320;28;25049;-63
2024/01/11 08:33:52;;;;;;;68.03;35.30;;;;;;;;;;4962080;28;25108;-62
2024/01/11 08:36:18;;;;;;;68.57;35.22;;;;;;;;;;4966267;28;25062;-64
2024/01/11 08:38:44;;;;;;;71.43;35.78;;;;;;;;;;4961572;28;25069;-63
2024/01/11 08:41:10;;;;;;;66.20;35.45;;;;;;;;;;4965127;28;25059;-64
2024/01/11 08:43:36;;;;;;;71.25;35.90;;;;;;;;;;4964430;28;25063;-62
2024/01/11 08:46:02;;;;;;;65.47;35.72;;;;;;;;;;4973576;28;25076;-64
2024/01/11 08:48:29;;;;;;;65.70;36.67;;;;;;;;;;4964213;28;25083;-64
2024/01/11 08:50:55;;;;;;;68.70;36.55;;;;;;;;;;4984419;28;25074;-64
2024/01/11 08:53:21;;;;;;;59.92;33.25;;;;;;;;;;4970990;28;25048;-66
2024/01/11 08:55:47;;;;;;;64.35;33.80;;;;;;;;;;4971034;28;25065;-64
2024/01/11 08:58:13;;;;;;;64.65;35.13;;;;;;;;;;4964107;28;25064;-67
2024/01/11 09:00:39;;;;;;;59.75;33.22;;;;;;;;;;4963260;28;25088;-62
2024/01/11 09:03:05;;;;;;;59.00;34.20;;;;;;;;;;4960582;28;25165;-62
2024/01/11 09:05:31;;;;;;;70.78;34.63;;;;;;;;;;4961296;28;25040;-63
2024/01/11 09:07:57;;;;;;;64.65;34.83;;;;;;;;;;4964640;28;25088;-64
2024/01/11 09:10:23;;;;;;;68.03;34.90;;;;;;;;;;4962415;28;25101;-64
2024/01/11 09:12:49;;;;;;;64.28;35.20;;;;;;;;;;4965662;28;25139;-62
2024/01/11 09:15:15;;;;;;;64.68;34.83;;;;;;;;;;4964031;28;25082;-63
2024/01/11 09:17:41;;;;;;;63.47;35.15;;;;;;;;;;4962052;28;25106;-63
2024/01/11 09:20:07;;;;;;;66.88;34.75;;;;;;;;;;4962655;28;25078;-62
2024/01/11 09:22:33;;;;;;;70.20;33.88;;;;;;;;;;4958480;28;25088;-61
2024/01/11 09:24:59;;;;;;;61.58;32.58;;;;;;;;;;4960839;28;25072;-62
2024/01/11 09:27:25;;;;;;;66.70;37.03;;;;;;;;;;4962722;28;25096;-61
2024/01/11 09:29:51;;;;;;;65.05;37.30;;;;;;;;;;4981562;28;25081;-61
2024/01/11 09:32:17;;;;;;;62.22;33.55;;;;;;;;;;4986938;28;25065;-60
2024/01/11 09:34:45;;;;;;;65.82;35.20;;;;;;;;;;4985651;28;25077;-62
2024/01/11 09:37:11;;;;;;;63.75;33.45;;;;;;;;;;4983189;28;25146;-62
2024/01/11 09:39:37;;;;;;;62.13;33.47;;;;;;;;;;4980976;28;25067;-60
2024/01/11 09:42:09;;;;;;;61.88;35.58;;;;;;;;;;4965392;28;25173;-61
2024/01/11 09:44:37;;;;;;;62.17;34.05;;;;;;;;;;4967143;28;25071;-62
2024/01/11 09:47:04;;;;;;;63.70;34.08;;;;;;;;;;4962350;28;25068;-61
2024/01/11 09:49:31;;;;;;;60.53;33.38;;;;;;;;;;4967050;28;25134;-61
2024/01/11 09:51:57;;;;;;;57.55;31.67;;;;;;;;;;4963928;28;25159;-62
2024/01/11 09:54:23;;;;;;;60.42;33.80;;;;;;;;;;4966221;28;25196;-62
2024/01/11 09:56:51;;;;;;;63.10;33.42;;;;;;;;;;4962131;28;25052;-61
2024/01/11 09:59:19;;;;;;;60.15;32.17;;;;;;;;;;4968599;28;25075;-61
2024/01/11 10:01:46;;;;;;;64.93;33.42;;;;;;;;;;4968596;28;25065;-59
2024/01/11 10:04:13;;;;;;;58.30;31.33;;;;;;;;;;4967602;28;25145;-62
2024/01/11 10:06:39;;;;;;;62.10;32.47;;;;;;;;;;4955060;28;25066;-62
2024/01/11 10:09:06;;;;;;;63.75;32.60;;;;;;;;;;4968199;28;24984;-62
2024/01/11 10:11:34;;;;;;;55.58;30.98;;;;;;;;;;4968744;28;25065;-64
2024/01/11 10:14:01;;;;;;;54.38;30.45;;;;;;;;;;4969465;28;25091;-65
2024/01/11 10:16:28;;;;;;;53.70;29.15;;;;;;;;;;4966005;28;25061;-64
2024/01/11 10:18:55;;;;;;;57.50;30.60;;;;;;;;;;4968150;28;25085;-63
2024/01/11 10:21:21;;;;;;;55.28;31.20;;;;;;;;;;4968996;28;25121;-64
2024/01/11 10:23:47;;;;;;;56.17;30.35;;;;;;;;;;4964062;28;25059;-64
2024/01/11 10:26:16;;;;;;;49.25;27.63;;;;;;;;;;4977003;28;25086;-63
2024/01/11 10:28:45;;;;;;;49.30;29.25;;;;;;;;;;4973324;28;25124;-62
2024/01/11 10:31:11;;;;;;;52.47;28.42;;;;;;;;;;4966126;28;25069;-64
2024/01/11 10:33:37;;;;;;;53.28;29.05;;;;;;;;;;4960968;28;25094;-63
2024/01/11 10:36:03;;;;;;;49.33;27.52;;;;;;;;;;4984309;28;25070;-63
2024/01/11 10:38:31;;;;;;;54.60;30.67;;;;;;;;;;4988986;28;25062;-64
2024/01/11 10:41:00;;;;;;;50.88;28.58;;;;;;;;;;4978500;28;25062;-65
2024/01/11 10:43:26;;;;;;;50.88;29.70;;;;;;;;;;4985157;28;25077;-62
2024/01/11 10:45:53;;;;;;;56.42;31.08;;;;;;;;;;4978298;28;25060;-61
2024/01/11 10:48:22;;;;;;;55.83;29.35;;;;;;;;;;4971160;28;25052;-64
2024/01/11 10:50:50;;;;;;;55.05;29.25;;;;;;;;;;4965783;28;25105;-63
2024/01/11 10:53:34;;;;;;;50.22;28.70;;;;;;;;;;4961868;28;25063;-61
2024/01/11 10:56:02;;;;;;;51.35;29.30;;;;;;;;;;4983709;28;25113;-62
2024/01/11 10:58:29;;;;;;;50.30;29.35;;;;;;;;;;4984994;28;25059;-62
2024/01/11 11:00:55;;;;;;;53.60;29.75;;;;;;;;;;4989392;28;25056;-62
2024/01/11 11:03:21;;;;;;;46.00;26.50;;;;;;;;;;4988143;28;25066;-64
2024/01/11 11:05:50;;;;;;;50.15;27.70;;;;;;;;;;4982111;28;25101;-64
2024/01/11 11:08:16;;;;;;;47.10;23.90;;;;;;;;;;4985055;28;25173;-66
2024/01/11 11:10:43;;;;;;;50.50;25.67;;;;;;;;;;4990473;28;25101;-66
2024/01/11 11:13:10;;;;;;;53.97;31.85;;;;;;;;;;4982590;28;25092;-63
2024/01/11 11:15:37;;;;;;;54.05;27.02;;;;;;;;;;4969474;28;25182;-62
2024/01/11 11:18:05;;;;;;;56.47;29.13;;;;;;;;;;4968910;28;25073;-62
2024/01/11 11:20:32;;;;;;;56.33;28.95;;;;;;;;;;4960315;28;25132;-61
2024/01/11 11:23:05;;;;;;;53.28;27.92;;;;;;;;;;4966270;28;25125;-61
2024/01/11 11:25:31;;;;;;;52.67;28.73;;;;;;;;;;4966023;28;25063;-63
2024/01/11 11:27:58;;;;;;;58.80;31.13;;;;;;;;;;4963947;28;25069;-63
2024/01/11 11:30:24;;;;;;;55.78;29.60;;;;;;;;;;4967099;28;25080;-62
2024/01/11 11:32:50;;;;;;;51.78;28.88;;;;;;;;;;4963228;28;25162;-64
2024/01/11 11:35:16;;;;;;;62.10;31.13;;;;;;;;;;4965939;28;25061;-62
2024/01/11 11:37:42;;;;;;;57.53;29.67;;;;;;;;;;4963782;28;25110;-62
2024/01/11 11:40:12;;;;;;;56.95;31.55;;;;;;;;;;4968367;28;25063;-63
2024/01/11 11:42:40;;;;;;;57.55;31.35;;;;;;;;;;4979534;28;25124;-63
2024/01/11 11:45:07;;;;;;;52.05;27.88;;;;;;;;;;4967036;28;25065;-64
2024/01/11 11:47:39;;;;;;;53.55;28.13;;;;;;;;;;4965865;28;25093;-62
2024/01/11 11:50:05;;;;;;;;;;;;;;;;;;4985299;28;25130;-63
2024/01/11 11:52:34;;;;;;;52.33;27.98;;;;;;;;;;4988631;28;25095;-64
2024/01/11 11:55:00;;;;;;;55.70;31.02;;;;;;;;;;4971607;28;25171;-65
2024/01/11 11:57:27;;;;;;;58.05;29.27;;;;;;;;;;4963834;28;25064;-64
2024/01/11 11:59:55;;;;;;;58.85;29.83;;;;;;;;;;4984597;28;25077;-64
2024/01/11 12:02:22;;;;;;;53.42;29.58;;;;;;;;;;4968074;28;25080;-66
2024/01/11 12:04:48;;;;;;;54.00;31.13;;;;;;;;;;4963436;28;25103;-62
2024/01/11 12:07:14;;;;;;;49.38;27.45;;;;;;;;;;4965339;28;25055;-62
2024/01/11 12:09:40;;;;;;;53.50;28.75;;;;;;;;;;4961870;28;25091;-63
2024/01/11 12:12:07;;;;;;;57.38;30.45;;;;;;;;;;4961676;28;25063;-61
2024/01/11 12:14:33;;;;;;;50.85;28.13;;;;;;;;;;4956388;28;25059;-62
2024/01/11 12:16:59;;;;;;;49.95;29.95;;;;;;;;;;4960111;28;25055;-65
2024/01/11 12:19:25;;;;;;;49.38;27.38;;;;;;;;;;4961608;28;25055;-62
2024/01/11 12:21:52;;;;;;;45.05;26.33;;;;;;;;;;4965835;28;25073;-62
2024/01/11 12:24:18;;;;;;;50.70;28.70;;;;;;;;;;4962993;28;25069;-63
2024/01/11 12:26:45;;;;;;;52.80;29.20;;;;;;;;;;4963631;28;25089;-62
2024/01/11 12:29:12;;;;;;;51.25;28.55;;;;;;;;;;4965263;28;25150;-62
2024/01/11 12:31:38;;;;;;;47.63;28.00;;;;;;;;;;4962368;28;25092;-61
2024/01/11 12:34:04;;;;;;;46.80;27.20;;;;;;;;;;4966563;28;25095;-64
2024/01/11 12:36:30;;;;;;;42.03;25.80;;;;;;;;;;4992852;28;25075;-64
2024/01/11 12:38:56;;;;;;;43.20;25.70;;;;;;;;;;4964813;28;25067;-62
2024/01/11 12:41:23;;;;;;;46.10;26.85;;;;;;;;;;4964984;28;25143;-61
2024/01/11 12:43:49;;;;;;;46.00;26.13;;;;;;;;;;4964842;28;25045;-63
2024/01/11 12:46:15;;;;;;;38.88;24.00;;;;;;;;;;4960337;28;25068;-63
2024/01/11 12:48:42;;;;;;;44.17;26.33;;;;;;;;;;4963663;28;25076;-63
2024/01/11 12:51:08;;;;;;;40.78;24.35;;;;;;;;;;4962428;28;25098;-63
2024/01/11 12:53:36;;;;;;;35.85;22.98;;;;;;;;;;4966265;28;25054;-64
2024/01/11 12:56:03;;;;;;;36.58;22.33;;;;;;;;;;4961513;28;25052;-64
2024/01/11 12:58:29;;;;;;;38.20;23.92;;;;;;;;;;4965985;28;25044;-63
2024/01/11 13:00:57;;;;;;;36.28;23.25;;;;;;;;;;4964496;28;25110;-62
2024/01/11 13:03:23;;;;;;;40.60;24.80;;;;;;;;;;4986779;28;25072;-61
2024/01/11 13:05:49;;;;;;;38.97;24.52;;;;;;;;;;4965606;28;25052;-65
2024/01/11 13:08:15;;;;;;;41.40;24.67;;;;;;;;;;4959822;28;25088;-63
2024/01/11 13:10:41;;;;;;;35.47;23.10;;;;;;;;;;4963908;28;25124;-63
2024/01/11 13:13:08;;;;;;;37.33;23.85;;;;;;;;;;4960877;28;25103;-60
2024/01/11 13:15:34;;;;;;;38.53;22.00;;;;;;;;;;4958062;28;25066;-61
2024/01/11 13:18:00;;;;;;;32.08;21.67;;;;;;;;;;4992636;28;25084;-62
2024/01/11 13:20:27;;;;;;;39.50;23.88;;;;;;;;;;4976126;28;25055;-60
2024/01/11 13:23:11;;;;;;;36.53;23.27;;;;;;;;;;4981361;28;25072;-60
2024/01/11 13:25:37;;;;;;;33.55;21.42;;;;;;;;;;4972993;28;25077;-61
2024/01/11 13:28:03;;;;;;;33.08;22.00;;;;;;;;;;4967320;28;25066;-60
2024/01/11 13:30:30;;;;;;;33.95;21.77;;;;;;;;;;4973118;28;25167;-60
2024/01/11 13:32:56;;;;;;;32.72;21.95;;;;;;;;;;4987390;28;25060;-61
2024/01/11 13:35:22;;;;;;;33.08;21.45;;;;;;;;;;4976432;28;25141;-60
2024/01/11 13:37:48;;;;;;;30.35;21.25;;;;;;;;;;4969966;28;25149;-60
2024/01/11 13:40:13;;;;;;;38.53;21.33;;;;;;;;;;4966833;28;25094;-60
2024/01/11 13:42:40;;;;;;;30.58;20.83;;;;;;;;;;4967269;28;25084;-60
2024/01/11 13:45:08;;;;;;;31.60;20.65;;;;;;;;;;4967907;28;25091;-58
2024/01/11 13:47:34;;;;;;;28.20;19.67;;;;;;;;;;4963356;28;25083;-62
2024/01/11 13:50:01;;;;;;;29.33;20.45;;;;;;;;;;4963012;28;25120;-60
2024/01/11 13:52:27;;;;;;;30.50;20.17;;;;;;;;;;4963814;28;25069;-61
2024/01/11 13:54:52;;;;;;;28.42;20.00;;;;;;;;;;4965432;28;25049;-61
2024/01/11 13:57:18;;;;;;;31.20;20.95;;;;;;;;;;4966639;28;25103;-60
2024/01/11 13:59:44;;;;;;;28.20;19.13;;;;;;;;;;4964317;28;25053;-62
2024/01/11 14:02:10;;;;;;;31.23;21.23;;;;;;;;;;4966713;28;25145;-60
2024/01/11 14:04:36;;;;;;;31.45;21.13;;;;;;;;;;4961644;28;25134;-59
2024/01/11 14:07:03;;;;;;;29.75;20.80;;;;;;;;;;4965663;28;25061;-61
2024/01/11 14:09:29;;;;;;;28.83;19.75;;;;;;;;;;4958350;28;25072;-60
2024/01/11 14:11:55;;;;;;;31.60;19.60;;;;;;;;;;4976972;28;25069;-61
2024/01/11 14:14:21;;;;;;;31.63;19.55;;;;;;;;;;4966399;28;25074;-58